CST,Max TemperatureF,Mean TemperatureF,Min TemperatureF,Max Dew PointF,MeanDew PointF,Min DewpointF,Max Humidity, Mean Humidity, Min Humidity, Max Sea Level PressureIn, Mean Sea Level PressureIn, Min Sea Level PressureIn, Max VisibilityMiles, Mean VisibilityMiles, Min VisibilityMiles, Max Wind SpeedMPH, Mean Wind SpeedMPH, Max Gust SpeedMPH,PrecipitationIn, CloudCover, Events, WindDirDegrees
2013-2-1,24,11,-2,19,7,-6,92,86,79,30.21,30.04,29.87,10,6,1,16,8,17,0.05,8,Snow,262
2013-2-2,33,19,4,30,16,1,96,87,77,30.29,30.12,29.94,10,7,1,38,13,45,0.03,7,Snow,300
2013-2-3,26,21,15,22,15,12,100,87,74,30.12,29.98,29.82,10,10,10,10,5,14,T,6,,66
2013-2-4,36,27,18,29,25,15,100,88,75,30.02,29.77,29.67,10,10,9,21,10,26,0.00,6,,229
2013-2-5,31,28,24,25,23,20,85,77,69,30.02,29.91,29.77,10,10,10,17,9,22,0.00,6,,241
2013-2-6,32,24,16,27,24,19,100,89,78,30.09,29.88,29.65,10,8,4,16,6,20,T,6,,336
2013-2-7,28,24,20,27,22,19,100,96,92,30.19,30.12,30.04,10,4,0,13,5,14,T,7,Fog-Snow,122
2013-2-8,34,24,14,27,22,14,100,88,75,30.08,29.99,29.90,10,8,0,10,3,13,0.00,2,Fog,239
2013-2-9,30,18,6,24,12,5,100,89,78,30.00,29.91,29.79,10,4,0,9,3,12,T,5,Fog,221
2013-2-10,29,24,19,27,20,16,92,85,77,30.14,29.95,29.80,10,10,5,29,15,32,T,8,Snow,325
2013-2-11,29,23,16,19,15,13,100,84,68,30.17,30.03,29.90,10,10,7,21,11,26,T,4,Snow,269
2013-2-12,35,25,14,27,21,13,85,79,72,29.99,29.93,29.83,10,10,10,22,10,26,0.00,4,,249
2013-2-13,36,32,28,32,27,23,92,82,72,29.86,29.76,29.64,10,10,8,25,11,33,T,7,Rain-Snow,283
2013-2-14,30,24,18,28,21,15,92,84,75,30.38,30.17,29.80,10,6,0,35,15,40,T,8,Fog-Snow,332
2013-2-15,27,15,3,26,13,2,92,80,68,30.49,30.32,29.99,10,8,2,17,5,20,0.01,4,Snow,219
2013-2-16,39,30,20,30,26,22,92,81,70,30.01,29.91,29.72,10,10,10,16,5,20,T,1,,235
2013-2-17,36,28,19,31,26,16,100,88,75,29.90,29.62,29.48,10,6,2,32,14,39,0.07,6,Snow,302
2013-2-18,19,7,-6,16,7,-9,92,84,76,30.46,30.11,29.82,10,6,2,23,13,26,T,7,Snow,348
2013-2-19,3,-4,-12,-6,-11,-18,90,77,64,30.51,30.43,30.18,10,10,10,21,10,26,0.00,0,,80
2013-2-20,18,9,0,7,-1,-7,75,66,56,30.30,30.18,30.06,10,10,9,23,13,31,0.00,1,,131
2013-2-21,24,13,2,19,14,2,91,79,67,30.19,30.12,29.97,10,10,9,9,5,,0.00,7,,129
2013-2-22,34,21,8,25,19,11,100,83,66,30.06,29.93,29.78,10,10,8,10,4,14,0.00,1,,168
2013-2-23,40,28,15,29,22,15,100,82,63,29.85,29.73,29.67,10,10,8,9,3,10,0.00,3,,212
2013-2-24,33,27,20,26,23,17,96,83,69,30.12,30.06,29.87,10,10,10,17,8,22,0.00,2,,289
2013-2-25,41,29,17,27,23,14,92,76,59,30.05,29.92,29.85,10,10,10,14,5,16,0.00,0,,219
2013-2-26,33,26,19,27,24,18,100,88,75,30.21,30.04,29.86,10,10,8,18,7,23,0.00,5,,293
2013-2-27,28,26,24,25,23,21,100,88,75,30.38,30.30,30.18,10,8,2,12,6,16,T,8,Snow,19
2013-2-28,33,27,21,27,23,19,100,89,78,30.35,30.27,30.15,10,10,7,13,6,17,0.00,7,,120